Unalaska, Alaska
Current Conditions -  °F | °C
As of 12:47 PM on Saturday 20 Dec 2014 (Local Time) from PADU Reporting Station
Scattered Clouds Scattered Clouds  
Wind Chill: 37°   Ceiling: Unl
Heat Index: 37°   Visibility: 10mi
Dew Point: 34°   Wind: 0mph
Humidity: 87%   Direction: NA
Pressure: 28.9"   Gusts: NA
Location:  53.87°N, 166.54°W
Report Text: PADU 202147Z 00000KT 10SM FEW030 SCT170 03/01 A2890 RMK CS
Loading
Personal Weather Stations






























Interactive Weather Map New forecast layout! Learn more

10-Day Weather Forecast

Advertisements
Track Severe Weather on mobile